Time;durP1;ratioP1;P1;durP2;ratioP2;P2;SDS_P1;SDS_P2;PMS_P1;PMS_P2;Temp;Humidity;BMP_temperature;BMP_pressure;BME280_temperature;BME280_humidity;BME280_pressure;Samples;Min_cycle;Max_cycle;Signal;HPM_P1;HPM_P2
2022/09/10 00:00:39;;;;;;;11.00;6.70;;;15.80;99.90;;;;;;5128751;27;20428;-70
2022/09/10 00:03:05;;;;;;;10.83;7.33;;;15.80;99.90;;;;;;5127168;27;20414;-70
2022/09/10 00:05:42;;;;;;;10.50;7.50;;;15.70;99.90;;;;;;5129893;27;20482;-71
2022/09/10 00:08:08;;;;;;;10.07;7.47;;;15.70;99.90;;;;;;5128636;27;20402;-72
2022/09/10 00:10:46;;;;;;;12.65;7.95;;;15.70;99.90;;;;;;5135071;27;20394;-71
2022/09/10 00:13:13;;;;;;;10.15;7.32;;;15.70;99.90;;;;;;5134961;27;20481;-71
2022/09/10 00:15:46;;;;;;;10.13;6.93;;;15.70;99.90;;;;;;5135646;27;20405;-70
2022/09/10 00:18:14;;;;;;;10.18;7.10;;;15.70;99.90;;;;;;5133866;27;20425;-70
2022/09/10 00:20:53;;;;;;;10.00;7.55;;;15.70;99.90;;;;;;5135384;27;20402;-71
2022/09/10 00:23:23;;;;;;;10.50;7.72;;;15.70;99.90;;;;;;5135432;27;20415;-71
2022/09/10 00:25:51;;;;;;;9.40;7.38;;;15.80;99.90;;;;;;5135475;27;20462;-71
2022/09/10 00:28:16;;;;;;;11.60;7.30;;;15.70;99.90;;;;;;5135158;27;20434;-70
2022/09/10 00:30:45;;;;;;;10.45;7.55;;;15.70;99.90;;;;;;5135158;27;20394;-71
2022/09/10 00:33:12;;;;;;;13.32;8.18;;;15.70;99.90;;;;;;5115370;27;20429;-71
2022/09/10 00:35:41;;;;;;;12.85;8.00;;;15.70;99.90;;;;;;5128129;27;20410;-71
2022/09/10 00:38:08;;;;;;;11.38;8.27;;;15.70;99.90;;;;;;5135497;27;20437;-70
2022/09/10 00:40:34;;;;;;;12.13;8.10;;;15.70;99.90;;;;;;5134618;27;20900;-71
2022/09/10 00:43:00;;;;;;;13.80;8.63;;;15.60;99.90;;;;;;5134806;27;21101;-71
2022/09/10 00:45:35;;;;;;;15.00;9.15;;;15.70;99.90;;;;;;5134627;27;20441;-71
2022/09/10 00:48:15;;;;;;;11.65;8.30;;;15.70;99.90;;;;;;5135100;27;20773;-70
2022/09/10 00:50:44;;;;;;;12.45;9.50;;;15.70;99.90;;;;;;5134911;27;20908;-71
2022/09/10 00:53:14;;;;;;;13.37;9.37;;;15.60;99.90;;;;;;5134829;27;20979;-71
2022/09/10 00:55:44;;;;;;;15.10;9.18;;;15.70;99.90;;;;;;5134678;27;20819;-71
2022/09/10 00:58:12;;;;;;;13.85;9.75;;;15.60;99.90;;;;;;5134842;27;20402;-71
2022/09/10 01:00:40;;;;;;;16.73;10.10;;;15.60;99.90;;;;;;5134800;27;20478;-71
2022/09/10 01:03:10;;;;;;;14.33;9.97;;;15.60;99.90;;;;;;5131750;27;20470;-71
2022/09/10 01:05:36;;;;;;;14.88;10.57;;;15.60;99.90;;;;;;5131356;27;20399;-71
2022/09/10 01:08:02;;;;;;;14.90;10.48;;;15.70;99.90;;;;;;5131511;27;20406;-71
2022/09/10 01:10:33;;;;;;;15.27;10.43;;;15.60;99.90;;;;;;5130865;27;21230;-71
2022/09/10 01:13:10;;;;;;;16.90;11.10;;;15.70;99.90;;;;;;5118050;27;20431;-70
2022/09/10 01:16:09;;;;;;;14.25;10.55;;;15.60;99.90;;;;;;5123820;27;20422;-70
2022/09/10 01:19:20;;;;;;;15.45;11.10;;;15.60;99.90;;;;;;5128034;27;20503;-71
2022/09/10 01:22:21;;;;;;;15.57;11.00;;;15.60;99.90;;;;;;5125658;27;20420;-71
2022/09/10 01:24:53;;;;;;;16.80;10.63;;;15.60;99.90;;;;;;5128268;27;20464;-71
2022/09/10 01:27:44;;;;;;;17.60;11.20;;;15.60;99.90;;;;;;5130659;27;20442;-70
2022/09/10 01:30:13;;;;;;;18.35;11.45;;;15.60;99.90;;;;;;5131119;27;20444;-71
2022/09/10 01:32:42;;;;;;;16.38;10.82;;;15.60;99.90;;;;;;5130815;27;20474;-72
2022/09/10 01:35:08;;;;;;;16.80;11.55;;;15.60;99.90;;;;;;5131134;27;20830;-71
2022/09/10 01:37:37;;;;;;;15.75;11.45;;;15.60;99.90;;;;;;5129897;27;20480;-71
2022/09/10 01:40:04;;;;;;;18.15;11.35;;;15.60;99.90;;;;;;5130550;27;20391;-70
2022/09/10 01:42:30;;;;;;;18.98;11.90;;;15.60;99.90;;;;;;5116376;27;20890;-71
2022/09/10 01:44:56;;;;;;;16.88;11.38;;;15.60;99.90;;;;;;5130705;27;20501;-71
2022/09/10 01:47:31;;;;;;;16.67;11.82;;;15.60;99.90;;;;;;5129777;27;20410;-71
2022/09/10 01:50:10;;;;;;;16.48;11.07;;;15.60;99.90;;;;;;5129684;27;20413;-70
2022/09/10 01:53:05;;;;;;;16.27;12.00;;;15.60;99.90;;;;;;5129854;27;20405;-71
2022/09/10 01:55:34;;;;;;;19.03;12.43;;;15.60;99.90;;;;;;5129406;27;20987;-71
2022/09/10 01:58:28;;;;;;;16.48;11.48;;;15.60;99.90;;;;;;5130192;27;20406;-70
2022/09/10 02:01:28;;;;;;;17.98;12.10;;;15.60;99.90;;;;;;5107912;27;20869;-71
2022/09/10 02:04:02;;;;;;;18.50;12.35;;;15.60;99.90;;;;;;5130021;27;20395;-71
2022/09/10 02:06:31;;;;;;;17.00;11.75;;;15.70;99.90;;;;;;5130083;27;20411;-71
2022/09/10 02:08:59;;;;;;;17.58;13.00;;;15.70;99.90;;;;;;5130596;27;20422;-71
2022/09/10 02:11:25;;;;;;;16.27;12.35;;;15.60;99.90;;;;;;5130139;27;20455;-70
2022/09/10 02:13:52;;;;;;;18.17;12.73;;;15.60;99.90;;;;;;5129222;27;20426;-70
2022/09/10 02:16:31;;;;;;;18.23;12.68;;;15.70;99.90;;;;;;5129712;27;20504;-72
2022/09/10 02:18:58;;;;;;;16.92;12.60;;;15.60;99.90;;;;;;5130345;27;20441;-70
2022/09/10 02:21:24;;;;;;;18.30;12.90;;;15.70;99.90;;;;;;5116724;27;20400;-70
2022/09/10 02:23:55;;;;;;;18.55;13.25;;;15.70;99.90;;;;;;5129987;27;20409;-71
2022/09/10 02:26:22;;;;;;;18.85;13.43;;;15.70;99.90;;;;;;5128729;27;20417;-71
2022/09/10 02:28:48;;;;;;;18.00;13.25;;;15.60;99.90;;;;;;5130357;27;20498;-71
2022/09/10 02:31:14;;;;;;;18.52;13.57;;;15.60;99.90;;;;;;5129774;27;20409;-71
2022/09/10 02:33:40;;;;;;;20.63;13.07;;;15.60;99.90;;;;;;5129773;27;20439;-71
2022/09/10 02:36:06;;;;;;;20.85;13.90;;;15.50;99.90;;;;;;5129956;27;20473;-71
2022/09/10 02:38:32;;;;;;;19.67;14.02;;;15.60;99.90;;;;;;5119569;27;20399;-70
2022/09/10 02:40:58;;;;;;;20.92;14.02;;;15.60;99.90;;;;;;5109671;27;20442;-70
2022/09/10 02:43:25;;;;;;;19.10;13.75;;;15.60;99.90;;;;;;5119346;27;20467;-71
2022/09/10 02:45:57;;;;;;;19.38;13.50;;;15.60;99.90;;;;;;5126436;27;20414;-71
2022/09/10 02:48:26;;;;;;;21.08;14.82;;;15.60;99.90;;;;;;5120159;27;20478;-70
2022/09/10 02:50:53;;;;;;;21.80;14.30;;;15.60;99.90;;;;;;5124876;27;20396;-71
2022/09/10 02:53:19;;;;;;;20.05;14.30;;;15.60;99.90;;;;;;5123895;27;20407;-71
2022/09/10 02:55:46;;;;;;;21.63;14.13;;;15.60;99.90;;;;;;5129215;27;20776;-71
2022/09/10 02:58:12;;;;;;;20.88;14.82;;;15.60;99.90;;;;;;5117863;27;20783;-71
2022/09/10 03:00:39;;;;;;;21.17;14.63;;;15.60;99.90;;;;;;5126595;27;20394;-71
2022/09/10 03:03:05;;;;;;;20.50;14.90;;;15.60;99.90;;;;;;5108086;27;20449;-71
2022/09/10 03:05:31;;;;;;;22.45;14.95;;;15.70;99.90;;;;;;5129347;27;20394;-71
2022/09/10 03:07:57;;;;;;;22.17;15.82;;;15.70;99.90;;;;;;5129035;27;20446;-70
2022/09/10 03:10:23;;;;;;;20.92;15.50;;;15.60;99.90;;;;;;5128803;27;20418;-71
2022/09/10 03:12:49;;;;;;;21.15;15.32;;;15.70;99.90;;;;;;5129555;27;20414;-71
2022/09/10 03:15:15;;;;;;;25.07;16.40;;;15.70;99.90;;;;;;5123650;27;20400;-71
2022/09/10 03:17:40;;;;;;;22.63;16.92;;;15.70;99.90;;;;;;5120968;27;20795;-70
2022/09/10 03:20:07;;;;;;;24.43;16.43;;;15.70;99.90;;;;;;5128424;27;20441;-70
2022/09/10 03:22:33;;;;;;;24.10;16.43;;;15.70;99.90;;;;;;5128946;27;20403;-71
2022/09/10 03:24:58;;;;;;;23.83;16.10;;;15.60;99.90;;;;;;5126377;27;20475;-71
2022/09/10 03:27:25;;;;;;;23.00;16.45;;;15.60;99.90;;;;;;5129167;27;20955;-71
2022/09/10 03:29:50;;;;;;;23.70;16.52;;;15.60;99.90;;;;;;5129154;27;21021;-71
2022/09/10 03:32:16;;;;;;;22.08;16.30;;;15.60;99.90;;;;;;5114810;27;20394;-71
2022/09/10 03:34:43;;;;;;;24.65;17.13;;;15.60;99.90;;;;;;5128002;27;20407;-71
2022/09/10 03:37:08;;;;;;;24.70;16.90;;;15.60;99.90;;;;;;5117977;27;20456;-71
2022/09/10 03:39:34;;;;;;;24.40;17.20;;;15.60;99.90;;;;;;5124429;27;20898;-72
2022/09/10 03:42:00;;;;;;;24.93;17.37;;;15.70;99.90;;;;;;5108165;28;20757;-71
2022/09/10 03:44:25;;;;;;;24.88;17.67;;;15.60;99.90;;;;;;5122069;27;20463;-72
2022/09/10 03:46:51;;;;;;;27.33;18.37;;;15.60;99.90;;;;;;5128834;27;20463;-71
2022/09/10 03:49:17;;;;;;;24.00;17.23;;;15.60;99.90;;;;;;5109895;28;20439;-71
2022/09/10 03:51:42;;;;;;;23.80;17.10;;;15.60;99.90;;;;;;5121711;28;20428;-71
2022/09/10 03:54:08;;;;;;;25.80;17.55;;;15.70;99.90;;;;;;5100272;28;20416;-71
2022/09/10 03:56:34;;;;;;;24.60;17.77;;;15.70;99.90;;;;;;5120807;28;20439;-71
2022/09/10 03:59:00;;;;;;;26.58;18.67;;;15.60;99.90;;;;;;5122699;28;20451;-71
2022/09/10 04:01:25;;;;;;;26.63;18.60;;;15.70;99.90;;;;;;5110230;28;20807;-71
2022/09/10 04:03:55;;;;;;;28.48;18.67;;;15.70;99.90;;;;;;5114795;28;20395;-71
2022/09/10 04:06:21;;;;;;;28.83;20.17;;;15.70;99.90;;;;;;5120728;28;20916;-71
2022/09/10 04:08:53;;;;;;;28.48;18.85;;;15.70;99.90;;;;;;5114356;28;20462;-71
2022/09/10 04:11:19;;;;;;;28.05;19.05;;;15.70;99.90;;;;;;5128156;28;20390;-71
2022/09/10 04:13:48;;;;;;;27.43;19.17;;;15.70;99.90;;;;;;5128772;27;20397;-72
2022/09/10 04:16:17;;;;;;;29.40;20.25;;;15.80;99.90;;;;;;5128356;28;20814;-71
2022/09/10 04:18:42;;;;;;;28.83;18.63;;;15.70;99.90;;;;;;5106720;28;20411;-71
2022/09/10 04:21:08;;;;;;;32.00;20.25;;;15.70;99.90;;;;;;5123795;28;20399;-71
2022/09/10 04:23:34;;;;;;;30.30;19.80;;;15.80;99.90;;;;;;5119830;28;20913;-71
2022/09/10 04:25:59;;;;;;;32.35;20.50;;;15.80;99.90;;;;;;5108595;28;20430;-71
2022/09/10 04:28:25;;;;;;;31.93;20.53;;;15.80;99.90;;;;;;5108307;28;20424;-71
2022/09/10 04:30:51;;;;;;;35.35;22.02;;;15.80;99.90;;;;;;5122988;28;20428;-71
2022/09/10 04:33:17;;;;;;;35.22;21.83;;;15.80;99.90;;;;;;5128069;28;20949;-71
2022/09/10 04:35:43;;;;;;;37.73;22.20;;;15.80;99.90;;;;;;5128371;28;20398;-71
2022/09/10 04:38:09;;;;;;;36.15;22.20;;;15.80;99.90;;;;;;5129008;27;20459;-71
2022/09/10 04:40:35;;;;;;;34.75;21.85;;;15.80;99.90;;;;;;5131537;27;20428;-71
2022/09/10 04:43:01;;;;;;;35.42;22.65;;;15.80;99.90;;;;;;5132414;27;20486;-71
2022/09/10 04:45:26;;;;;;;34.97;21.53;;;15.80;99.90;;;;;;5116970;27;20492;-71
2022/09/10 04:47:53;;;;;;;34.47;22.13;;;15.80;99.90;;;;;;5119988;27;20457;-71
2022/09/10 04:50:19;;;;;;;34.78;21.73;;;15.90;99.90;;;;;;5130462;27;20506;-71
2022/09/10 04:52:45;;;;;;;33.17;21.63;;;15.90;99.90;;;;;;5119491;27;20961;-71
2022/09/10 04:55:11;;;;;;;37.95;22.23;;;15.80;99.90;;;;;;5131220;27;20406;-71
2022/09/10 04:57:37;;;;;;;37.17;22.20;;;15.90;99.90;;;;;;5113755;27;20459;-71
2022/09/10 05:00:07;;;;;;;34.80;21.98;;;15.90;99.90;;;;;;5131283;27;20470;-71
2022/09/10 05:02:33;;;;;;;32.88;21.83;;;15.90;99.90;;;;;;5131277;27;20435;-71
2022/09/10 05:04:59;;;;;;;34.83;22.07;;;15.90;99.90;;;;;;5131737;27;20433;-71
2022/09/10 05:07:24;;;;;;;33.92;21.20;;;15.90;99.90;;;;;;5127839;27;20442;-71
2022/09/10 05:09:50;;;;;;;33.47;21.07;;;15.90;99.90;;;;;;5131751;27;20423;-71
2022/09/10 05:12:18;;;;;;;37.45;21.88;;;15.90;99.90;;;;;;5131244;27;20402;-71
2022/09/10 05:14:44;;;;;;;34.63;21.73;;;15.90;99.90;;;;;;5131487;27;20900;-71
2022/09/10 05:17:10;;;;;;;39.53;22.98;;;15.80;99.90;;;;;;5131079;27;20409;-71
2022/09/10 05:19:36;;;;;;;37.05;21.95;;;15.90;99.90;;;;;;5131273;27;20785;-71
2022/09/10 05:22:01;;;;;;;37.63;21.48;;;15.80;99.90;;;;;;5131056;27;20410;-71
2022/09/10 05:24:27;;;;;;;39.80;22.87;;;15.90;99.90;;;;;;5131551;27;20825;-71
2022/09/10 05:26:53;;;;;;;36.75;22.63;;;15.90;99.90;;;;;;5119665;27;20404;-71
2022/09/10 05:29:20;;;;;;;38.73;22.63;;;15.80;99.90;;;;;;5123706;27;20432;-71
2022/09/10 05:31:46;;;;;;;38.20;22.73;;;15.90;99.90;;;;;;5122820;27;20477;-71
2022/09/10 05:34:12;;;;;;;38.17;22.33;;;15.90;99.90;;;;;;5131056;27;20956;-71
2022/09/10 05:36:37;;;;;;;35.35;22.20;;;15.90;99.90;;;;;;5130967;27;20406;-71
2022/09/10 05:39:03;;;;;;;36.73;22.07;;;15.90;99.90;;;;;;5130169;27;20915;-71
2022/09/10 05:41:30;;;;;;;37.05;22.55;;;15.90;99.90;;;;;;5124886;27;20404;-71
2022/09/10 05:43:56;;;;;;;36.72;22.13;;;15.90;99.90;;;;;;5111462;27;20417;-71
2022/09/10 05:46:23;;;;;;;38.88;22.13;;;15.90;99.90;;;;;;5130649;27;20407;-71
2022/09/10 05:48:49;;;;;;;37.85;21.67;;;16.00;99.90;;;;;;5119080;27;20515;-71
2022/09/10 05:51:15;;;;;;;35.15;22.02;;;16.00;99.90;;;;;;5110233;27;21503;-71
2022/09/10 05:53:41;;;;;;;36.95;22.40;;;16.00;99.90;;;;;;5121898;27;20433;-72
2022/09/10 05:56:07;;;;;;;36.73;22.20;;;16.00;99.90;;;;;;5130563;27;20788;-71
2022/09/10 05:58:35;;;;;;;35.75;22.27;;;16.00;99.90;;;;;;5130774;27;20403;-71
2022/09/10 06:01:00;;;;;;;35.83;21.67;;;16.00;99.90;;;;;;5127263;27;20413;-71
2022/09/10 06:03:26;;;;;;;34.78;21.17;;;16.10;99.90;;;;;;5130248;27;20912;-71
2022/09/10 06:05:52;;;;;;;38.93;22.73;;;16.10;99.90;;;;;;5126274;27;20395;-71
2022/09/10 06:08:22;;;;;;;38.22;21.75;;;16.00;99.90;;;;;;5130397;27;20761;-71
2022/09/10 06:10:59;;;;;;;37.03;22.40;;;16.00;99.90;;;;;;5124852;27;20406;-71
2022/09/10 06:13:25;;;;;;;37.50;22.83;;;16.10;99.90;;;;;;5115688;27;20803;-71
2022/09/10 06:15:52;;;;;;;38.78;22.25;;;16.10;99.90;;;;;;5129762;27;20471;-71
2022/09/10 06:18:18;;;;;;;36.42;22.95;;;16.10;99.90;;;;;;5130401;27;20502;-71
2022/09/10 06:20:44;;;;;;;34.30;21.33;;;16.20;99.90;;;;;;5130422;27;20892;-71
2022/09/10 06:23:10;;;;;;;35.90;21.70;;;16.20;99.90;;;;;;5129762;27;20406;-72
2022/09/10 06:25:36;;;;;;;34.90;21.30;;;16.20;99.90;;;;;;5128842;27;20812;-71
2022/09/10 06:28:02;;;;;;;32.03;20.77;;;16.20;99.90;;;;;;5129105;27;20493;-71
2022/09/10 06:30:27;;;;;;;33.85;21.63;;;16.20;99.90;;;;;;5129579;27;20510;-71
2022/09/10 06:32:53;;;;;;;34.90;20.43;;;16.30;99.90;;;;;;5129948;27;20696;-71
2022/09/10 06:35:19;;;;;;;30.77;19.73;;;16.30;99.90;;;;;;5129946;27;20395;-71
2022/09/10 06:37:44;;;;;;;30.77;19.70;;;16.30;99.90;;;;;;5129272;27;20397;-71
2022/09/10 06:40:10;;;;;;;33.05;20.08;;;16.30;99.90;;;;;;5128523;27;20415;-72
2022/09/10 06:42:35;;;;;;;31.50;19.67;;;16.30;99.90;;;;;;5129615;27;20449;-71
2022/09/10 06:45:01;;;;;;;30.92;19.25;;;16.30;99.90;;;;;;5129829;27;20406;-71
2022/09/10 06:47:27;;;;;;;31.10;20.40;;;16.30;99.90;;;;;;5130091;27;20395;-71
2022/09/10 06:49:52;;;;;;;30.13;19.77;;;16.30;99.90;;;;;;5129276;27;20453;-71
2022/09/10 06:52:18;;;;;;;33.80;19.85;;;16.30;99.90;;;;;;5121020;27;20406;-71
2022/09/10 06:54:43;;;;;;;29.23;19.83;;;16.30;99.90;;;;;;5129555;27;20407;-71
2022/09/10 06:57:10;;;;;;;32.42;19.63;;;16.30;99.90;;;;;;5128806;27;20410;-71
2022/09/10 06:59:35;;;;;;;32.08;19.63;;;16.30;99.90;;;;;;5130821;27;20411;-71
2022/09/10 07:02:01;;;;;;;32.37;19.67;;;16.40;99.90;;;;;;5132681;27;20930;-71
2022/09/10 07:04:27;;;;;;;29.63;19.90;;;16.30;99.90;;;;;;5134831;27;20805;-71
2022/09/10 07:06:53;;;;;;;31.47;20.07;;;16.30;99.90;;;;;;5132339;27;20451;-71
2022/09/10 07:09:20;;;;;;;31.35;19.65;;;16.40;99.90;;;;;;5130871;27;20418;-72
2022/09/10 07:11:45;;;;;;;32.92;20.15;;;16.40;99.90;;;;;;5125692;27;20421;-72
2022/09/10 07:14:12;;;;;;;29.23;19.10;;;16.50;99.90;;;;;;5129210;27;20398;-71
2022/09/10 07:16:44;;;;;;;33.60;19.23;;;16.50;99.90;;;;;;5127792;27;20430;-72
2022/09/10 07:19:13;;;;;;;27.97;18.30;;;16.60;99.90;;;;;;5109367;28;20853;-72
2022/09/10 07:21:39;;;;;;;28.17;18.20;;;16.60;99.90;;;;;;5123295;27;20414;-71
2022/09/10 07:24:05;;;;;;;27.90;18.63;;;16.50;99.90;;;;;;5103629;27;20450;-71
2022/09/10 07:26:31;;;;;;;29.07;18.27;;;16.60;99.90;;;;;;5114789;27;20400;-71
2022/09/10 07:28:58;;;;;;;29.23;18.17;;;16.60;99.90;;;;;;5116506;27;20469;-72
2022/09/10 07:31:28;;;;;;;27.15;17.77;;;16.60;99.90;;;;;;5116185;27;20393;-71
2022/09/10 07:33:59;;;;;;;23.63;16.75;;;16.60;99.90;;;;;;5123370;27;20454;-71
2022/09/10 07:36:26;;;;;;;24.87;17.47;;;16.70;99.90;;;;;;5130650;27;20459;-71
2022/09/10 07:38:53;;;;;;;25.50;17.30;;;16.70;99.90;;;;;;5128310;27;20401;-71
2022/09/10 07:41:19;;;;;;;25.23;16.95;;;16.70;99.90;;;;;;5122741;27;20412;-73
2022/09/10 07:43:45;;;;;;;23.73;16.30;;;16.80;99.90;;;;;;5131377;27;20762;-71
2022/09/10 07:46:18;;;;;;;25.40;17.33;;;16.90;99.90;;;;;;5136202;27;20397;-72
2022/09/10 07:48:44;;;;;;;27.00;17.30;;;16.90;99.90;;;;;;5129412;28;20856;-72
2022/09/10 07:51:10;;;;;;;24.10;16.33;;;16.90;99.90;;;;;;5126759;28;20435;-72
2022/09/10 07:53:37;;;;;;;24.55;16.13;;;16.90;99.90;;;;;;5108514;27;20740;-72
2022/09/10 07:56:05;;;;;;;24.90;16.27;;;16.90;99.90;;;;;;5126283;28;20394;-73
2022/09/10 07:58:34;;;;;;;24.08;16.17;;;17.00;99.90;;;;;;5117540;27;20435;-73
2022/09/10 08:01:01;;;;;;;24.92;16.08;;;17.00;99.90;;;;;;5122108;28;20404;-71
2022/09/10 08:03:28;;;;;;;21.63;15.88;;;17.00;99.90;;;;;;5103060;28;20403;-73
2022/09/10 08:05:54;;;;;;;25.27;15.80;;;17.10;99.90;;;;;;5123311;28;20416;-73
2022/09/10 08:08:21;;;;;;;24.00;15.13;;;17.10;99.90;;;;;;5108762;28;20449;-72
2022/09/10 08:10:48;;;;;;;26.40;15.23;;;17.20;99.90;;;;;;5127380;27;20496;-72
2022/09/10 08:13:14;;;;;;;22.77;14.60;;;17.20;99.90;;;;;;5133113;27;20455;-72
2022/09/10 08:15:43;;;;;;;24.27;14.90;;;17.30;99.90;;;;;;5118994;27;20486;-73
2022/09/10 08:18:14;;;;;;;27.27;15.95;;;17.30;99.90;;;;;;5120627;27;20404;-73
2022/09/10 08:20:40;;;;;;;23.35;15.30;;;17.40;99.90;;;;;;5118384;27;20406;-71
2022/09/10 08:23:06;;;;;;;21.17;15.07;;;17.40;99.90;;;;;;5120185;27;20403;-72
2022/09/10 08:25:32;;;;;;;23.60;16.27;;;17.40;99.90;;;;;;5131779;27;20399;-71
2022/09/10 08:27:59;;;;;;;24.50;15.77;;;17.40;99.90;;;;;;5132898;27;20490;-73
2022/09/10 08:30:25;;;;;;;24.23;15.88;;;17.50;99.90;;;;;;5132183;27;20426;-72
2022/09/10 08:32:51;;;;;;;21.67;15.73;;;17.40;99.90;;;;;;5132391;27;20928;-72
2022/09/10 08:35:18;;;;;;;25.17;16.23;;;17.50;99.90;;;;;;5125690;27;20424;-72
2022/09/10 08:37:43;;;;;;;26.33;15.43;;;17.40;99.90;;;;;;5125209;27;20489;-72
2022/09/10 08:40:11;;;;;;;22.37;15.73;;;17.30;99.90;;;;;;5132180;27;20816;-72
2022/09/10 08:42:48;;;;;;;23.13;15.90;;;17.40;99.90;;;;;;5131834;27;20912;-72
2022/09/10 08:45:27;;;;;;;26.55;16.92;;;17.40;99.90;;;;;;5120048;27;20468;-72
2022/09/10 08:47:57;;;;;;;24.27;16.77;;;17.40;99.90;;;;;;5131233;27;20977;-71
2022/09/10 08:50:55;;;;;;;24.70;16.40;;;17.40;99.90;;;;;;5120941;27;20453;-72
2022/09/10 08:53:26;;;;;;;24.88;15.20;;;17.40;99.90;;;;;;5119776;27;20820;-72
2022/09/10 08:55:56;;;;;;;20.58;13.68;;;17.40;99.90;;;;;;5129812;27;20403;-71
2022/09/10 08:58:33;;;;;;;22.10;14.60;;;17.40;99.90;;;;;;5131858;27;20399;-72
2022/09/10 09:01:03;;;;;;;22.77;14.60;;;17.40;99.90;;;;;;5127110;27;20409;-72
2022/09/10 09:03:38;;;;;;;21.13;14.55;;;17.30;99.90;;;;;;5131930;27;20520;-71
2022/09/10 09:06:07;;;;;;;20.45;13.55;;;17.30;99.90;;;;;;5130970;27;20502;-71
2022/09/10 09:08:39;;;;;;;21.40;13.50;;;17.40;99.90;;;;;;5130678;27;20801;-71
2022/09/10 09:11:18;;;;;;;19.70;14.17;;;17.40;99.90;;;;;;5130464;27;20413;-72
2022/09/10 09:13:56;;;;;;;23.38;13.32;;;17.40;99.90;;;;;;5130201;27;20523;-71
2022/09/10 09:16:34;;;;;;;19.17;13.23;;;17.50;99.90;;;;;;5130807;27;20485;-71
2022/09/10 09:19:22;;;;;;;23.17;13.80;;;17.50;99.90;;;;;;5116800;27;20402;-71
2022/09/10 09:22:00;;;;;;;19.60;13.25;;;17.60;99.90;;;;;;5116818;27;20408;-71
2022/09/10 09:24:56;;;;;;;19.85;14.10;;;17.60;99.90;;;;;;5129961;27;20489;-71
2022/09/10 09:27:27;;;;;;;20.75;13.43;;;17.60;99.90;;;;;;5118530;27;20399;-71
2022/09/10 09:30:00;;;;;;;20.17;14.02;;;17.60;99.90;;;;;;5130793;27;20422;-71
2022/09/10 09:32:29;;;;;;;18.45;12.45;;;17.70;99.90;;;;;;5131324;27;20394;-71
2022/09/10 09:35:18;;;;;;;16.95;12.15;;;17.70;99.90;;;;;;5130917;27;20443;-71
2022/09/10 09:37:47;;;;;;;19.52;12.70;;;17.70;99.90;;;;;;5131055;27;20479;-71
2022/09/10 09:40:19;;;;;;;18.35;12.30;;;17.80;99.90;;;;;;5130089;27;20413;-71
2022/09/10 09:43:01;;;;;;;17.48;12.23;;;17.80;99.90;;;;;;5130134;27;20422;-71
2022/09/10 09:45:36;;;;;;;18.27;11.45;;;17.80;99.90;;;;;;5130232;27;20406;-72
2022/09/10 09:48:08;;;;;;;13.23;9.30;;;17.90;99.90;;;;;;5115149;27;20418;-72
2022/09/10 09:50:38;;;;;;;12.35;9.15;;;18.00;99.90;;;;;;5129877;27;20422;-71
2022/09/10 09:53:04;;;;;;;12.63;8.77;;;18.10;99.90;;;;;;5130379;27;20394;-72
2022/09/10 09:55:37;;;;;;;13.25;10.07;;;18.20;99.90;;;;;;5130632;27;20768;-72
2022/09/10 09:58:21;;;;;;;12.98;9.15;;;18.30;99.90;;;;;;5129804;27;20417;-72
2022/09/10 10:01:11;;;;;;;14.35;10.00;;;18.50;99.90;;;;;;5129547;27;20415;-73
2022/09/10 10:03:47;;;;;;;12.98;9.07;;;18.50;99.90;;;;;;5120768;27;20415;-72
2022/09/10 10:06:14;;;;;;;12.90;9.20;;;18.50;99.90;;;;;;5118626;27;20428;-72
2022/09/10 10:08:45;;;;;;;14.32;9.65;;;18.60;99.90;;;;;;5130141;27;20433;-72
2022/09/10 10:11:19;;;;;;;14.83;9.07;;;18.60;99.90;;;;;;5129617;27;20974;-72
2022/09/10 10:13:46;;;;;;;14.48;8.95;;;18.70;99.90;;;;;;5130371;27;20546;-72
2022/09/10 10:16:27;;;;;;;12.63;8.98;;;18.80;99.90;;;;;;5130504;27;20403;-71
2022/09/10 10:18:52;;;;;;;14.43;9.38;;;18.80;99.90;;;;;;5125865;27;20404;-72
2022/09/10 10:21:29;;;;;;;11.80;8.80;;;18.80;99.90;;;;;;5120410;27;20409;-72
2022/09/10 10:23:55;;;;;;;13.97;9.10;;;18.80;99.90;;;;;;5129940;27;20417;-72
2022/09/10 10:26:20;;;;;;;14.13;9.02;;;18.80;99.90;;;;;;5130065;27;20399;-72
2022/09/10 10:29:21;;;;;;;14.00;9.80;;;18.80;99.90;;;;;;5130184;27;20423;-72
2022/09/10 10:31:49;;;;;;;15.13;9.93;;;18.80;99.90;;;;;;5065283;28;20426;-71
2022/09/10 10:34:33;;;;;;;16.43;10.93;;;18.80;99.90;;;;;;5116729;27;20418;-72
2022/09/10 10:37:07;;;;;;;16.23;10.65;;;18.90;99.90;;;;;;5116489;27;20872;-72
2022/09/10 10:40:07;;;;;;;14.32;10.10;;;18.90;99.90;;;;;;5129008;27;20780;-72
2022/09/10 10:42:41;;;;;;;17.23;10.80;;;19.00;99.90;;;;;;5128197;27;20414;-72
2022/09/10 10:45:48;;;;;;;17.50;10.75;;;19.10;99.90;;;;;;5117504;27;20965;-72
2022/09/10 10:48:27;;;;;;;14.57;10.47;;;19.10;99.90;;;;;;5099355;27;20419;-72
2022/09/10 10:51:08;;;;;;;12.52;9.80;;;19.20;99.90;;;;;;5122604;27;21497;-72
2022/09/10 10:53:55;;;;;;;14.32;9.70;;;19.20;99.90;;;;;;5128614;27;20442;-72
2022/09/10 10:56:41;;;;;;;15.95;10.98;;;19.30;99.90;;;;;;5128153;27;20464;-72
2022/09/10 10:59:45;;;;;;;15.40;10.02;;;19.40;99.90;;;;;;5128240;27;20411;-72
2022/09/10 11:02:42;;;;;;;13.40;10.07;;;19.40;99.90;;;;;;5128784;27;20928;-73
2022/09/10 11:05:30;;;;;;;15.85;10.52;;;19.60;99.90;;;;;;5129044;27;20760;-71
2022/09/10 11:07:59;;;;;;;15.38;10.55;;;19.70;99.90;;;;;;5118210;27;20406;-72
2022/09/10 11:10:33;;;;;;;16.50;10.77;;;19.90;99.90;;;;;;5128062;27;20954;-72
2022/09/10 11:13:24;;;;;;;12.97;9.23;;;20.10;99.90;;;;;;5120265;27;20403;-72
2022/09/10 11:15:58;;;;;;;14.43;10.50;;;20.40;99.90;;;;;;5116697;27;20410;-73
2022/09/10 11:18:32;;;;;;;13.23;9.38;;;20.80;99.90;;;;;;5115385;27;20408;-72
2022/09/10 11:21:01;;;;;;;13.40;8.70;;;21.70;99.90;;;;;;5129239;27;20418;-71
2022/09/10 11:23:38;;;;;;;11.15;9.13;;;22.80;99.90;;;;;;5127074;27;20402;-71
2022/09/10 11:26:06;;;;;;;12.35;8.65;;;23.30;99.90;;;;;;5109107;28;20408;-71
2022/09/10 11:28:38;;;;;;;11.68;8.80;;;23.30;99.90;;;;;;5126346;27;20430;-71
2022/09/10 11:31:35;;;;;;;11.07;8.45;;;23.70;99.90;;;;;;5129086;27;20520;-71
2022/09/10 11:34:11;;;;;;;10.63;7.65;;;24.70;99.90;;;;;;5093312;27;20403;-72
2022/09/10 11:36:42;;;;;;;11.30;7.97;;;25.50;99.90;;;;;;5128345;27;20395;-71
2022/09/10 11:39:33;;;;;;;11.13;7.18;;;26.00;99.90;;;;;;5128996;27;20511;-71
2022/09/10 11:42:12;;;;;;;10.57;7.67;;;26.30;99.30;;;;;;5127960;27;20401;-72
2022/09/10 11:44:50;;;;;;;11.00;7.53;;;26.70;99.30;;;;;;5124997;27;20408;-71
2022/09/10 11:47:28;;;;;;;9.67;6.60;;;27.10;97.30;;;;;;5120277;27;20434;-71
2022/09/10 11:50:28;;;;;;;9.10;6.57;;;27.30;97.00;;;;;;5115420;27;20423;-72
2022/09/10 11:52:57;;;;;;;9.88;7.13;;;27.30;97.00;;;;;;5126287;28;20418;-71
2022/09/10 11:55:38;;;;;;;9.45;7.22;;;27.50;96.40;;;;;;5128491;27;20407;-72
2022/09/10 11:58:25;;;;;;;9.75;7.15;;;27.70;95.70;;;;;;5129113;27;20899;-72
2022/09/10 12:01:12;;;;;;;8.75;5.78;;;27.50;95.00;;;;;;5128307;28;20430;-71
2022/09/10 12:03:47;;;;;;;8.13;5.63;;;27.80;95.10;;;;;;5128517;27;20481;-71
2022/09/10 12:06:32;;;;;;;9.38;6.90;;;27.80;93.10;;;;;;5116542;28;20402;-71
2022/09/10 12:09:28;;;;;;;6.13;4.60;;;27.60;94.30;;;;;;5127300;28;20472;-72
2022/09/10 12:12:13;;;;;;;7.10;4.95;;;27.90;92.60;;;;;;5128415;28;20927;-71
2022/09/10 12:14:40;;;;;;;6.63;5.20;;;28.20;92.40;;;;;;5128358;27;20501;-70
2022/09/10 12:17:13;;;;;;;8.65;6.05;;;28.40;93.00;;;;;;5127662;28;20390;-70
2022/09/10 12:19:50;;;;;;;8.70;5.65;;;28.60;92.40;;;;;;5117332;28;20401;-71
2022/09/10 12:22:20;;;;;;;8.68;5.55;;;28.80;92.50;;;;;;5127037;28;20799;-72
2022/09/10 12:24:55;;;;;;;8.55;6.00;;;29.00;92.10;;;;;;5115775;28;20408;-72
2022/09/10 12:27:42;;;;;;;9.30;6.07;;;29.20;90.60;;;;;;5108257;28;20404;-71
2022/09/10 12:30:35;;;;;;;8.52;5.30;;;29.20;91.00;;;;;;5111085;28;20464;-71
2022/09/10 12:33:20;;;;;;;7.03;5.85;;;29.10;90.60;;;;;;5128413;28;20403;-72
2022/09/10 12:35:48;;;;;;;7.07;5.88;;;29.10;90.30;;;;;;5128671;27;20406;-71
2022/09/10 12:38:48;;;;;;;8.20;5.50;;;29.20;89.40;;;;;;5128113;28;20411;-72
2022/09/10 12:41:20;;;;;;;6.68;4.60;;;29.20;87.60;;;;;;5113502;27;20463;-71
2022/09/10 12:43:46;;;;;;;6.97;4.93;;;29.30;89.60;;;;;;5106997;28;20469;-71
2022/09/10 12:46:11;;;;;;;6.97;4.95;;;29.50;88.10;;;;;;5110709;28;20420;-71
2022/09/10 12:48:50;;;;;;;6.95;4.75;;;29.60;87.70;;;;;;5128355;28;20833;-71
2022/09/10 12:51:15;;;;;;;6.70;4.07;;;29.20;85.80;;;;;;5097300;28;20403;-71